METAR AND TAF INFORMATION
METAR FOR DAAT
ADDS - METARS form results

(1146 UTC 23 May 2019)
Data provider http://aviationweather.gov/metar/data/
 
METAR text: DAAT 231130Z 25010KT 180V300 9999 FEW046 SCT100 33/M02 Q1021
Conditions at: DAAT (TAMANRASSET/AGUE, DZ) observed 1130 UTC 23 May 2019
Temperature: 33.0°C (91°F)
Dewpoint: -2.0°C (28°F) [RH = 10%]
Pressure (altimeter): 30.15 inches Hg (1021.0 mb)
Winds: from the WSW (250 degrees) at 12 MPH (10 knots; 5.1 m/s)
Visibility: 6 or more miles (10+ km)
Ceiling: at least 12,000 feet AGL
Clouds: few clouds at 4600 feet AGL
scattered clouds at 10000 feet AGL
Weather: no significant weather observed at this time

METAR text: DAAT 231100Z 25004KT CAVOK 33/M02 Q1021
Conditions at: DAAT (TAMANRASSET/AGUE, DZ) observed 1100 UTC 23 May 2019
Temperature: 33.0°C (91°F)
Dewpoint: -2.0°C (28°F) [RH = 10%]
Pressure (altimeter): 30.15 inches Hg (1021.0 mb)
Winds: from the WSW (250 degrees) at 5 MPH (4 knots; 2.1 m/s)
Visibility: 6 or more miles (10+ km)
Ceiling: ceiling and visibility are OK
Clouds: unknown
Weather: no significant weather observed at this time

Forecast for: DAAT (TAMANRASSET/AGUE, DZ)
Text: TAF DAAT 231100Z 2312/2412 28008KT CAVOK
Forecast period: 1200 UTC 23 May 2019 to 1200 UTC 24 May 2019
Forecast type: FROM: standard forecast or significant change
Winds: from the W (280 degrees) at 9 MPH (8 knots; 4.1 m/s)
Visibility: 6 or more miles 10+ km)
Ceiling: unknown
Clouds: missing
Weather: NSW  (no significant weather)

AIRPORT MAP

RUNWAY INFORMATION
Runway 02 Runway length 11811 ft Runway width 148 ft
Runway elevation 4459 ft Runway displaced threshold 0 ft Runway heading 22
Runway 20 Runway length 11811 ft Runway width 148 ft
Runway elevation 4518 ft Runway displaced threshold 0 ft Runway heading 202
Runway 08 Runway length 10171 ft Runway width 148 ft
Runway elevation 4465 ft Runway displaced threshold 0 ft Runway heading 82
Runway 26 Runway length 10171 ft Runway width 148 ft
Runway elevation 4472 ft Runway displaced threshold 0 ft Runway heading 262

AIRPORT FREQUENCIES
Type RDO Name RDO Frequency 119.7 MHZ
Type TWR Name TWR Frequency 118.1 MHZ

AIRPORT NEAR NAVIGATION AIDS
Type NDB Name Tamanrasset Frequency 358 KHZ
Type VOR-DME Name Tamanrasset Frequency 112500 KHZ